Terminal Aerodrome Forecast
Issued by NWS

Home | Current Version | Previous Version | Text Only | Print | Product List | Glossary On
Versions: 1 2 3 4 5 6 7 8 9 10 11 12 13 14 15 16 17
000
FTUS45 KRIW 252300
TAFJAC
TAF
KJAC 252331Z 2600/2624 19011KT 1SM -SN SCT007 OVC012
     FM260500 19011KT 3SM -SN OVC016
     FM261700 19013KT P6SM VCSH SCT020 BKN050
      AMD LTD TO CLD VIS AND WIND=

USA.gov is the U.S. government's official web portal to all federal, state and local government web resources and services.